sensor_id;sensor_type;location;lat;lon;timestamp;pressure;altitude;pressure_sealevel;temperature;humidity
64200;BME280;50516;52.272;5.136;2023-04-22T00:00:04;100856.34;;;11.39;83.14
64200;BME280;50516;52.272;5.136;2023-04-22T00:02:30;100857.44;;;11.38;83.21
64200;BME280;50516;52.272;5.136;2023-04-22T00:04:56;100860.19;;;11.38;83.30
64200;BME280;50516;52.272;5.136;2023-04-22T00:07:21;100853.34;;;11.30;83.69
64200;BME280;50516;52.272;5.136;2023-04-22T00:09:47;100853.63;;;11.29;83.72
64200;BME280;50516;52.272;5.136;2023-04-22T00:12:13;100854.44;;;11.35;83.50
64200;BME280;50516;52.272;5.136;2023-04-22T00:14:38;100858.84;;;11.30;83.49
64200;BME280;50516;52.272;5.136;2023-04-22T00:17:04;100855.28;;;11.25;84.15
64200;BME280;50516;52.272;5.136;2023-04-22T00:19:31;100850.31;;;11.27;84.02
64200;BME280;50516;52.272;5.136;2023-04-22T00:21:56;100845.94;;;11.26;83.81
64200;BME280;50516;52.272;5.136;2023-04-22T00:24:22;100857.47;;;11.23;84.09
64200;BME280;50516;52.272;5.136;2023-04-22T00:26:47;100854.72;;;11.23;83.58
64200;BME280;50516;52.272;5.136;2023-04-22T00:29:13;100843.19;;;11.21;83.71
64200;BME280;50516;52.272;5.136;2023-04-22T00:31:38;100852.56;;;11.09;83.67
64200;BME280;50516;52.272;5.136;2023-04-22T00:34:03;100844.00;;;11.11;83.92
64200;BME280;50516;52.272;5.136;2023-04-22T00:36:28;100843.19;;;11.15;83.52
64200;BME280;50516;52.272;5.136;2023-04-22T00:38:55;100838.78;;;11.04;83.62
64200;BME280;50516;52.272;5.136;2023-04-22T00:41:21;100834.44;;;10.98;83.93
64200;BME280;50516;52.272;5.136;2023-04-22T00:43:46;100833.31;;;10.89;83.94
64200;BME280;50516;52.272;5.136;2023-04-22T00:46:14;100833.59;;;10.82;83.75
64200;BME280;50516;52.272;5.136;2023-04-22T00:48:40;100833.31;;;10.84;83.71
64200;BME280;50516;52.272;5.136;2023-04-22T00:51:06;100827.00;;;10.73;83.78
64200;BME280;50516;52.272;5.136;2023-04-22T00:53:31;100836.63;;;10.81;83.54
64200;BME280;50516;52.272;5.136;2023-04-22T00:55:57;100833.31;;;10.73;83.76
64200;BME280;50516;52.272;5.136;2023-04-22T00:58:25;100832.50;;;10.73;83.41
64200;BME280;50516;52.272;5.136;2023-04-22T01:00:51;100834.97;;;10.74;83.85
64200;BME280;50516;52.272;5.136;2023-04-22T01:03:18;100842.09;;;10.70;83.37
64200;BME280;50516;52.272;5.136;2023-04-22T01:05:45;100833.31;;;10.63;83.63
64200;BME280;50516;52.272;5.136;2023-04-22T01:08:12;100828.91;;;10.67;83.54
64200;BME280;50516;52.272;5.136;2023-04-22T01:10:38;100840.44;;;10.64;83.11
64200;BME280;50516;52.272;5.136;2023-04-22T01:13:04;100850.59;;;10.53;83.74
64200;BME280;50516;52.272;5.136;2023-04-22T01:15:30;100853.88;;;10.55;83.73
64200;BME280;50516;52.272;5.136;2023-04-22T01:17:55;100848.94;;;10.57;83.65
64200;BME280;50516;52.272;5.136;2023-04-22T01:20:21;100845.91;;;10.59;83.63
64200;BME280;50516;52.272;5.136;2023-04-22T01:22:49;100850.56;;;10.43;84.13
64200;BME280;50516;52.272;5.136;2023-04-22T01:27:50;100845.06;;;10.43;83.89
64200;BME280;50516;52.272;5.136;2023-04-22T01:30:16;100839.56;;;10.43;83.56
64200;BME280;50516;52.272;5.136;2023-04-22T01:32:41;100849.47;;;10.39;83.66
64200;BME280;50516;52.272;5.136;2023-04-22T01:35:08;100847.25;;;10.36;83.46
64200;BME280;50516;52.272;5.136;2023-04-22T01:37:34;100844.22;;;10.32;83.37
64200;BME280;50516;52.272;5.136;2023-04-22T01:39:59;100847.53;;;10.34;83.29
64200;BME280;50516;52.272;5.136;2023-04-22T01:42:26;100848.28;;;10.30;83.50
64200;BME280;50516;52.272;5.136;2023-04-22T01:44:51;100849.09;;;10.25;83.47
64200;BME280;50516;52.272;5.136;2023-04-22T01:47:16;100847.75;;;10.22;83.15
64200;BME280;50516;52.272;5.136;2023-04-22T01:49:42;100853.22;;;10.17;83.11
64200;BME280;50516;52.272;5.136;2023-04-22T01:52:07;100849.34;;;10.18;82.48
64200;BME280;50516;52.272;5.136;2023-04-22T01:54:32;100858.13;;;10.15;82.87
64200;BME280;50516;52.272;5.136;2023-04-22T01:56:59;100844.94;;;10.07;83.03
64200;BME280;50516;52.272;5.136;2023-04-22T01:59:24;100859.44;;;10.02;82.71
64200;BME280;50516;52.272;5.136;2023-04-22T02:01:50;100850.09;;;9.93;82.63
64200;BME280;50516;52.272;5.136;2023-04-22T02:04:15;100857.75;;;9.86;82.90
64200;BME280;50516;52.272;5.136;2023-04-22T02:06:40;100855.78;;;9.81;82.97
64200;BME280;50516;52.272;5.136;2023-04-22T02:09:06;100855.50;;;9.78;82.86
64200;BME280;50516;52.272;5.136;2023-04-22T02:11:31;100851.03;;;9.61;83.06
64200;BME280;50516;52.272;5.136;2023-04-22T02:13:57;100845.56;;;9.61;82.97
64200;BME280;50516;52.272;5.136;2023-04-22T02:16:22;100854.88;;;9.60;83.09
64200;BME280;50516;52.272;5.136;2023-04-22T02:18:47;100848.81;;;9.53;83.09
64200;BME280;50516;52.272;5.136;2023-04-22T02:21:13;100852.63;;;9.52;82.78
64200;BME280;50516;52.272;5.136;2023-04-22T02:23:39;100855.38;;;9.57;82.76
64200;BME280;50516;52.272;5.136;2023-04-22T02:26:04;100855.38;;;9.57;82.82
64200;BME280;50516;52.272;5.136;2023-04-22T02:28:30;100850.97;;;9.51;83.00
64200;BME280;50516;52.272;5.136;2023-04-22T02:30:56;100846.56;;;9.45;82.63
64200;BME280;50516;52.272;5.136;2023-04-22T02:33:21;100842.69;;;9.41;82.26
64200;BME280;50516;52.272;5.136;2023-04-22T02:35:47;100847.09;;;9.42;82.31
64200;BME280;50516;52.272;5.136;2023-04-22T02:38:12;100845.97;;;9.43;82.01
64200;BME280;50516;52.272;5.136;2023-04-22T02:40:38;100840.22;;;9.39;81.81
64200;BME280;50516;52.272;5.136;2023-04-22T02:43:03;100843.72;;;9.29;82.07
64200;BME280;50516;52.272;5.136;2023-04-22T02:45:28;100844.78;;;9.28;81.92
64200;BME280;50516;52.272;5.136;2023-04-22T02:47:54;100843.13;;;9.22;81.79
64200;BME280;50516;52.272;5.136;2023-04-22T02:50:19;100837.69;;;9.27;81.69
64200;BME280;50516;52.272;5.136;2023-04-22T02:52:44;100835.19;;;9.21;81.62
64200;BME280;50516;52.272;5.136;2023-04-22T02:55:10;100831.31;;;9.22;81.80
64200;BME280;50516;52.272;5.136;2023-04-22T02:57:35;100835.69;;;9.18;81.55
64200;BME280;50516;52.272;5.136;2023-04-22T03:00:00;100822.78;;;9.13;81.56
64200;BME280;50516;52.272;5.136;2023-04-22T03:02:26;100818.38;;;9.12;80.99
64200;BME280;50516;52.272;5.136;2023-04-22T03:04:51;100823.84;;;9.07;81.40
64200;BME280;50516;52.272;5.136;2023-04-22T03:07:18;100817.25;;;9.03;81.05
64200;BME280;50516;52.272;5.136;2023-04-22T03:09:44;100813.91;;;9.01;80.92
64200;BME280;50516;52.272;5.136;2023-04-22T03:12:11;100815.56;;;8.97;81.17
64200;BME280;50516;52.272;5.136;2023-04-22T03:14:37;100816.63;;;8.95;81.09
64200;BME280;50516;52.272;5.136;2023-04-22T03:17:02;100816.88;;;8.94;80.67
64200;BME280;50516;52.272;5.136;2023-04-22T03:19:27;100802.91;;;8.90;81.11
64200;BME280;50516;52.272;5.136;2023-04-22T03:21:52;100801.72;;;8.81;81.24
64200;BME280;50516;52.272;5.136;2023-04-22T03:24:18;100806.66;;;8.79;81.25
64200;BME280;50516;52.272;5.136;2023-04-22T03:26:43;100808.84;;;8.77;81.31
64200;BME280;50516;52.272;5.136;2023-04-22T03:29:08;100796.75;;;8.73;81.64
64200;BME280;50516;52.272;5.136;2023-04-22T03:31:34;100796.47;;;8.74;81.41
64200;BME280;50516;52.272;5.136;2023-04-22T03:33:59;100788.25;;;8.74;81.46
64200;BME280;50516;52.272;5.136;2023-04-22T03:36:26;100793.97;;;8.68;81.26
64200;BME280;50516;52.272;5.136;2023-04-22T03:38:52;100786.81;;;8.67;81.34
64200;BME280;50516;52.272;5.136;2023-04-22T03:41:17;100783.53;;;8.65;81.70
64200;BME280;50516;52.272;5.136;2023-04-22T03:43:42;100784.06;;;8.62;81.74
64200;BME280;50516;52.272;5.136;2023-04-22T03:46:08;100784.06;;;8.62;81.83
64200;BME280;50516;52.272;5.136;2023-04-22T03:48:33;100776.41;;;8.64;81.79
64200;BME280;50516;52.272;5.136;2023-04-22T03:51:00;100775.84;;;8.62;81.88
64200;BME280;50516;52.272;5.136;2023-04-22T03:53:26;100773.09;;;8.62;82.07
64200;BME280;50516;52.272;5.136;2023-04-22T03:55:51;100772.06;;;8.68;82.06
64200;BME280;50516;52.272;5.136;2023-04-22T03:58:17;100766.59;;;8.68;82.20
64200;BME280;50516;52.272;5.136;2023-04-22T04:00:42;100775.34;;;8.70;81.83
64200;BME280;50516;52.272;5.136;2023-04-22T04:03:07;100762.22;;;8.72;82.42
64200;BME280;50516;52.272;5.136;2023-04-22T04:05:33;100766.09;;;8.76;82.10
64200;BME280;50516;52.272;5.136;2023-04-22T04:07:58;100759.56;;;8.77;82.40
64200;BME280;50516;52.272;5.136;2023-04-22T04:10:24;100763.38;;;8.76;82.66
64200;BME280;50516;52.272;5.136;2023-04-22T04:12:49;100762.28;;;8.77;82.67
64200;BME280;50516;52.272;5.136;2023-04-22T04:15:15;100759.59;;;8.82;82.29
64200;BME280;50516;52.272;5.136;2023-04-22T04:17:42;100745.91;;;8.82;82.44
64200;BME280;50516;52.272;5.136;2023-04-22T04:20:08;100749.81;;;8.91;82.74
64200;BME280;50516;52.272;5.136;2023-04-22T04:22:34;100749.75;;;8.86;82.67
64200;BME280;50516;52.272;5.136;2023-04-22T04:25:00;100749.19;;;8.84;82.86
64200;BME280;50516;52.272;5.136;2023-04-22T04:27:25;100735.81;;;8.93;83.00
64200;BME280;50516;52.272;5.136;2023-04-22T04:29:51;100744.63;;;8.95;83.13
64200;BME280;50516;52.272;5.136;2023-04-22T04:32:16;100741.63;;;8.97;83.37
64200;BME280;50516;52.272;5.136;2023-04-22T04:34:42;100742.16;;;8.99;83.20
64200;BME280;50516;52.272;5.136;2023-04-22T04:37:07;100743.25;;;8.98;83.37
64200;BME280;50516;52.272;5.136;2023-04-22T04:39:33;100746.84;;;9.03;83.52
64200;BME280;50516;52.272;5.136;2023-04-22T04:41:58;100753.69;;;9.06;83.78
64200;BME280;50516;52.272;5.136;2023-04-22T04:44:24;100746.88;;;9.08;83.73
64200;BME280;50516;52.272;5.136;2023-04-22T04:46:56;100749.34;;;9.10;84.08
64200;BME280;50516;52.272;5.136;2023-04-22T04:49:22;100755.91;;;9.09;83.71
64200;BME280;50516;52.272;5.136;2023-04-22T04:51:47;100751.56;;;9.13;84.06
64200;BME280;50516;52.272;5.136;2023-04-22T04:54:13;100752.16;;;9.20;84.27
64200;BME280;50516;52.272;5.136;2023-04-22T04:56:38;100748.84;;;9.18;84.42
64200;BME280;50516;52.272;5.136;2023-04-22T04:59:04;100747.78;;;9.24;84.54
64200;BME280;50516;52.272;5.136;2023-04-22T05:01:29;100740.41;;;9.30;84.46
64200;BME280;50516;52.272;5.136;2023-04-22T05:03:54;100734.94;;;9.30;84.35
64200;BME280;50516;52.272;5.136;2023-04-22T05:06:20;100728.66;;;9.35;84.70
64200;BME280;50516;52.272;5.136;2023-04-22T05:08:46;100742.69;;;9.43;84.69
64200;BME280;50516;52.272;5.136;2023-04-22T05:11:11;100737.75;;;9.45;84.27
64200;BME280;50516;52.272;5.136;2023-04-22T05:13:36;100732.03;;;9.52;85.31
64200;BME280;50516;52.272;5.136;2023-04-22T05:16:02;100739.44;;;9.52;85.27
64200;BME280;50516;52.272;5.136;2023-04-22T05:18:27;100744.13;;;9.56;84.91
64200;BME280;50516;52.272;5.136;2023-04-22T05:20:52;100744.69;;;9.63;84.83
64200;BME280;50516;52.272;5.136;2023-04-22T05:23:17;100754.84;;;9.63;85.04
64200;BME280;50516;52.272;5.136;2023-04-22T05:25:43;100750.44;;;9.67;85.05
64200;BME280;50516;52.272;5.136;2023-04-22T05:28:08;100741.41;;;9.72;85.26
64200;BME280;50516;52.272;5.136;2023-04-22T05:30:33;100745.84;;;9.78;85.15
64200;BME280;50516;52.272;5.136;2023-04-22T05:32:59;100740.06;;;9.74;85.46
64200;BME280;50516;52.272;5.136;2023-04-22T05:35:24;100736.53;;;9.79;85.46
64200;BME280;50516;52.272;5.136;2023-04-22T05:37:50;100737.88;;;9.81;85.47
64200;BME280;50516;52.272;5.136;2023-04-22T05:40:15;100743.38;;;9.86;85.60
64200;BME280;50516;52.272;5.136;2023-04-22T05:42:40;100745.63;;;9.95;85.37
64200;BME280;50516;52.272;5.136;2023-04-22T05:45:06;100748.06;;;9.96;85.69
64200;BME280;50516;52.272;5.136;2023-04-22T05:47:31;100746.44;;;10.05;85.39
64200;BME280;50516;52.272;5.136;2023-04-22T05:49:57;100758.00;;;10.13;85.56
64200;BME280;50516;52.272;5.136;2023-04-22T05:52:22;100757.72;;;10.19;85.92
64200;BME280;50516;52.272;5.136;2023-04-22T05:54:47;100751.97;;;10.26;85.77
64200;BME280;50516;52.272;5.136;2023-04-22T05:57:13;100753.91;;;10.31;86.00
64200;BME280;50516;52.272;5.136;2023-04-22T05:59:38;100759.97;;;10.38;85.81
64200;BME280;50516;52.272;5.136;2023-04-22T06:02:03;100754.75;;;10.41;86.32
64200;BME280;50516;52.272;5.136;2023-04-22T06:04:28;100742.69;;;10.48;86.31
64200;BME280;50516;52.272;5.136;2023-04-22T06:06:55;100757.53;;;10.52;86.05
64200;BME280;50516;52.272;5.136;2023-04-22T06:09:20;100741.84;;;10.57;86.32
64200;BME280;50516;52.272;5.136;2023-04-22T06:11:46;100749.56;;;10.55;86.46
64200;BME280;50516;52.272;5.136;2023-04-22T06:14:11;100750.13;;;10.63;86.34
64200;BME280;50516;52.272;5.136;2023-04-22T06:16:37;100756.69;;;10.62;86.98
64200;BME280;50516;52.272;5.136;2023-04-22T06:19:04;100747.09;;;10.69;86.92
64200;BME280;50516;52.272;5.136;2023-04-22T06:21:29;100750.63;;;10.75;87.05
64200;BME280;50516;52.272;5.136;2023-04-22T06:23:56;100753.66;;;10.84;86.93
64200;BME280;50516;52.272;5.136;2023-04-22T06:26:22;100754.72;;;10.93;86.61
64200;BME280;50516;52.272;5.136;2023-04-22T06:28:47;100741.03;;;10.98;87.08
64200;BME280;50516;52.272;5.136;2023-04-22T06:31:12;100743.19;;;11.01;87.30
64200;BME280;50516;52.272;5.136;2023-04-22T06:33:37;100736.03;;;11.10;86.72
64200;BME280;50516;52.272;5.136;2023-04-22T06:36:03;100732.44;;;11.15;86.87
64200;BME280;50516;52.272;5.136;2023-04-22T06:38:29;100726.38;;;11.23;86.82
64200;BME280;50516;52.272;5.136;2023-04-22T06:40:54;100709.63;;;11.20;87.00
64200;BME280;50516;52.272;5.136;2023-04-22T06:43:20;100709.03;;;11.33;87.27
64200;BME280;50516;52.272;5.136;2023-04-22T06:45:45;100703.47;;;11.48;86.79
64200;BME280;50516;52.272;5.136;2023-04-22T06:48:10;100708.38;;;11.57;86.71
64200;BME280;50516;52.272;5.136;2023-04-22T06:50:36;100714.38;;;11.64;87.21
64200;BME280;50516;52.272;5.136;2023-04-22T06:53:01;100717.09;;;11.69;87.40
64200;BME280;50516;52.272;5.136;2023-04-22T06:55:26;100702.19;;;11.80;87.01
64200;BME280;50516;52.272;5.136;2023-04-22T06:57:51;100692.25;;;11.90;87.03
64200;BME280;50516;52.272;5.136;2023-04-22T07:00:17;100697.22;;;11.93;87.38
64200;BME280;50516;52.272;5.136;2023-04-22T07:02:42;100691.63;;;12.08;86.73
64200;BME280;50516;52.272;5.136;2023-04-22T07:05:08;100685.78;;;12.15;86.88
64200;BME280;50516;52.272;5.136;2023-04-22T07:07:33;100679.03;;;12.31;86.50
64200;BME280;50516;52.272;5.136;2023-04-22T07:09:58;100684.44;;;12.41;86.89
64200;BME280;50516;52.272;5.136;2023-04-22T07:12:24;100687.66;;;12.54;86.74
64200;BME280;50516;52.272;5.136;2023-04-22T07:14:49;100686.44;;;12.65;86.41
64200;BME280;50516;52.272;5.136;2023-04-22T07:17:15;100681.69;;;12.71;86.82
64200;BME280;50516;52.272;5.136;2023-04-22T07:19:43;100693.94;;;12.89;86.92
64200;BME280;50516;52.272;5.136;2023-04-22T07:22:08;100694.06;;;13.03;86.29
64200;BME280;50516;52.272;5.136;2023-04-22T07:24:34;100689.03;;;13.10;87.17
64200;BME280;50516;52.272;5.136;2023-04-22T07:26:59;100687.72;;;13.26;86.64
64200;BME280;50516;52.272;5.136;2023-04-22T07:29:26;100691.28;;;13.27;86.12
64200;BME280;50516;52.272;5.136;2023-04-22T07:31:51;100691.22;;;13.32;85.73
64200;BME280;50516;52.272;5.136;2023-04-22T07:34:17;100686.44;;;13.43;85.48
64200;BME280;50516;52.272;5.136;2023-04-22T07:36:42;100688.41;;;13.42;85.46
64200;BME280;50516;52.272;5.136;2023-04-22T07:39:08;100692.63;;;13.35;85.63
64200;BME280;50516;52.272;5.136;2023-04-22T07:41:33;100691.50;;;13.11;85.60
64200;BME280;50516;52.272;5.136;2023-04-22T07:44:00;100689.78;;;13.15;86.53
64200;BME280;50516;52.272;5.136;2023-04-22T07:46:25;100690.56;;;13.45;86.08
64200;BME280;50516;52.272;5.136;2023-04-22T07:48:54;100685.13;;;13.59;85.61
64200;BME280;50516;52.272;5.136;2023-04-22T07:51:19;100689.59;;;13.55;85.85
64200;BME280;50516;52.272;5.136;2023-04-22T07:53:44;100687.09;;;13.78;85.17
64200;BME280;50516;52.272;5.136;2023-04-22T07:56:10;100692.25;;;13.84;84.53
64200;BME280;50516;52.272;5.136;2023-04-22T07:58:35;100696.50;;;13.96;84.03
64200;BME280;50516;52.272;5.136;2023-04-22T08:01:00;100687.22;;;14.05;84.19
64200;BME280;50516;52.272;5.136;2023-04-22T08:03:26;100702.59;;;14.12;84.11
64200;BME280;50516;52.272;5.136;2023-04-22T08:05:51;100699.16;;;14.01;83.53
64200;BME280;50516;52.272;5.136;2023-04-22T08:08:17;100709.00;;;13.88;84.22
64200;BME280;50516;52.272;5.136;2023-04-22T08:10:42;100714.75;;;13.92;84.13
64200;BME280;50516;52.272;5.136;2023-04-22T08:13:07;100719.31;;;14.01;84.41
64200;BME280;50516;52.272;5.136;2023-04-22T08:15:33;100702.81;;;13.96;83.92
64200;BME280;50516;52.272;5.136;2023-04-22T08:17:58;100702.38;;;13.89;83.42
64200;BME280;50516;52.272;5.136;2023-04-22T08:20:23;100696.09;;;14.21;83.02
64200;BME280;50516;52.272;5.136;2023-04-22T08:22:50;100688.03;;;14.06;81.62
64200;BME280;50516;52.272;5.136;2023-04-22T08:25:16;100687.31;;;13.81;82.49
64200;BME280;50516;52.272;5.136;2023-04-22T08:27:42;100691.22;;;14.32;83.38
64200;BME280;50516;52.272;5.136;2023-04-22T08:30:07;100683.09;;;14.55;83.98
64200;BME280;50516;52.272;5.136;2023-04-22T08:32:33;100676.56;;;14.51;82.36
64200;BME280;50516;52.272;5.136;2023-04-22T08:34:59;100668.00;;;14.33;82.11
64200;BME280;50516;52.272;5.136;2023-04-22T08:37:24;100653.03;;;14.53;84.90
64200;BME280;50516;52.272;5.136;2023-04-22T08:39:50;100657.91;;;14.75;83.80
64200;BME280;50516;52.272;5.136;2023-04-22T08:42:16;100643.41;;;14.51;84.83
64200;BME280;50516;52.272;5.136;2023-04-22T08:44:44;100644.50;;;14.83;84.72
64200;BME280;50516;52.272;5.136;2023-04-22T08:47:10;100650.88;;;14.97;83.33
64200;BME280;50516;52.272;5.136;2023-04-22T08:49:37;100649.31;;;14.91;82.13
64200;BME280;50516;52.272;5.136;2023-04-22T08:52:03;100647.69;;;14.76;81.53
64200;BME280;50516;52.272;5.136;2023-04-22T08:54:28;100648.72;;;15.22;81.32
64200;BME280;50516;52.272;5.136;2023-04-22T08:56:54;100660.69;;;15.31;80.31
64200;BME280;50516;52.272;5.136;2023-04-22T08:59:21;100655.22;;;15.54;78.17
64200;BME280;50516;52.272;5.136;2023-04-22T09:01:51;100644.56;;;15.47;76.76
64200;BME280;50516;52.272;5.136;2023-04-22T09:04:17;100649.16;;;15.65;77.02
64200;BME280;50516;52.272;5.136;2023-04-22T09:06:43;100644.59;;;15.69;77.96
64200;BME280;50516;52.272;5.136;2023-04-22T09:09:08;100648.53;;;15.68;75.00
64200;BME280;50516;52.272;5.136;2023-04-22T09:11:34;100646.44;;;15.74;75.69
64200;BME280;50516;52.272;5.136;2023-04-22T09:14:00;100646.78;;;16.09;75.64
64200;BME280;50516;52.272;5.136;2023-04-22T09:16:39;100638.34;;;16.14;74.72
64200;BME280;50516;52.272;5.136;2023-04-22T09:19:10;100643.69;;;16.11;74.21
64200;BME280;50516;52.272;5.136;2023-04-22T09:21:35;100639.59;;;16.08;72.87
64200;BME280;50516;52.272;5.136;2023-04-22T09:24:00;100641.50;;;15.99;74.17
64200;BME280;50516;52.272;5.136;2023-04-22T09:26:27;100629.53;;;16.12;73.22
64200;BME280;50516;52.272;5.136;2023-04-22T09:28:54;100626.38;;;16.05;70.15
64200;BME280;50516;52.272;5.136;2023-04-22T09:31:22;100624.25;;;16.24;70.57
64200;BME280;50516;52.272;5.136;2023-04-22T09:33:53;100616.91;;;16.29;71.95
64200;BME280;50516;52.272;5.136;2023-04-22T09:36:25;100609.50;;;16.38;70.65
64200;BME280;50516;52.272;5.136;2023-04-22T09:38:55;100612.88;;;16.66;70.17
64200;BME280;50516;52.272;5.136;2023-04-22T09:41:28;100611.13;;;16.70;68.35
64200;BME280;50516;52.272;5.136;2023-04-22T09:43:54;100608.75;;;16.86;68.47
64200;BME280;50516;52.272;5.136;2023-04-22T09:46:21;100602.75;;;16.93;69.29
64200;BME280;50516;52.272;5.136;2023-04-22T09:48:48;100593.00;;;17.04;68.08
64200;BME280;50516;52.272;5.136;2023-04-22T09:51:15;100584.94;;;16.94;68.47
64200;BME280;50516;52.272;5.136;2023-04-22T09:53:46;100576.19;;;17.01;69.02
64200;BME280;50516;52.272;5.136;2023-04-22T09:56:20;100561.88;;;17.33;67.60
64200;BME280;50516;52.272;5.136;2023-04-22T09:58:51;100546.38;;;17.59;66.67
64200;BME280;50516;52.272;5.136;2023-04-22T10:01:16;100545.88;;;17.65;66.25
64200;BME280;50516;52.272;5.136;2023-04-22T10:03:43;100552.59;;;17.73;65.65
64200;BME280;50516;52.272;5.136;2023-04-22T10:06:09;100547.97;;;17.86;65.15
64200;BME280;50516;52.272;5.136;2023-04-22T10:08:35;100560.91;;;17.99;63.14
64200;BME280;50516;52.272;5.136;2023-04-22T10:11:00;100577.47;;;18.34;63.57
64200;BME280;50516;52.272;5.136;2023-04-22T10:13:26;100584.88;;;18.21;63.74
64200;BME280;50516;52.272;5.136;2023-04-22T10:15:52;100586.66;;;18.26;63.87
64200;BME280;50516;52.272;5.136;2023-04-22T10:18:24;100596.50;;;17.97;63.47
64200;BME280;50516;52.272;5.136;2023-04-22T10:20:52;100596.38;;;18.02;64.23
64200;BME280;50516;52.272;5.136;2023-04-22T10:23:20;100597.25;;;18.33;63.46
64200;BME280;50516;52.272;5.136;2023-04-22T10:25:46;100602.56;;;18.64;62.61
64200;BME280;50516;52.272;5.136;2023-04-22T10:28:15;100590.75;;;18.85;63.56
64200;BME280;50516;52.272;5.136;2023-04-22T10:30:41;100598.28;;;18.67;64.04
64200;BME280;50516;52.272;5.136;2023-04-22T10:36:05;100590.47;;;18.60;62.76
64200;BME280;50516;52.272;5.136;2023-04-22T10:38:35;100585.53;;;18.27;62.67
64200;BME280;50516;52.272;5.136;2023-04-22T10:41:00;100583.72;;;18.22;63.32
64200;BME280;50516;52.272;5.136;2023-04-22T10:43:47;100579.78;;;18.32;63.87
64200;BME280;50516;52.272;5.136;2023-04-22T10:49:06;100580.72;;;18.54;63.45
64200;BME280;50516;52.272;5.136;2023-04-22T10:51:48;100578.59;;;18.51;61.51
64200;BME280;50516;52.272;5.136;2023-04-22T10:59:51;100588.00;;;18.11;63.86
64200;BME280;50516;52.272;5.136;2023-04-22T11:02:18;100592.56;;;18.16;64.87
64200;BME280;50516;52.272;5.136;2023-04-22T11:04:43;100598.81;;;17.60;66.05
64200;BME280;50516;52.272;5.136;2023-04-22T11:15:07;100610.66;;;17.26;69.06
64200;BME280;50516;52.272;5.136;2023-04-22T11:17:34;100593.19;;;17.25;69.45
64200;BME280;50516;52.272;5.136;2023-04-22T11:20:00;100584.41;;;17.41;69.03
64200;BME280;50516;52.272;5.136;2023-04-22T11:22:26;100591.88;;;17.14;69.13
64200;BME280;50516;52.272;5.136;2023-04-22T11:24:55;100589.47;;;17.65;67.85
64200;BME280;50516;52.272;5.136;2023-04-22T11:27:20;100591.75;;;17.28;68.04
64200;BME280;50516;52.272;5.136;2023-04-22T11:30:03;100587.28;;;17.01;68.65
64200;BME280;50516;52.272;5.136;2023-04-22T11:32:30;100602.81;;;17.10;69.47
64200;BME280;50516;52.272;5.136;2023-04-22T11:34:56;100596.03;;;16.85;69.36
64200;BME280;50516;52.272;5.136;2023-04-22T11:37:22;100594.59;;;16.88;69.75
64200;BME280;50516;52.272;5.136;2023-04-22T11:39:48;100586.28;;;17.05;69.32
64200;BME280;50516;52.272;5.136;2023-04-22T11:42:19;100562.38;;;17.44;68.03
64200;BME280;50516;52.272;5.136;2023-04-22T11:44:45;100587.19;;;17.76;66.47
64200;BME280;50516;52.272;5.136;2023-04-22T11:47:11;100596.19;;;17.64;66.25
64200;BME280;50516;52.272;5.136;2023-04-22T11:49:37;100597.59;;;16.77;68.26
64200;BME280;50516;52.272;5.136;2023-04-22T11:52:02;100606.38;;;16.71;68.52
64200;BME280;50516;52.272;5.136;2023-04-22T11:54:35;100619.09;;;16.40;70.13
64200;BME280;50516;52.272;5.136;2023-04-22T11:57:07;100621.09;;;16.17;70.77
64200;BME280;50516;52.272;5.136;2023-04-22T11:59:34;100620.09;;;15.91;72.82
64200;BME280;50516;52.272;5.136;2023-04-22T12:01:59;100627.97;;;15.97;74.89
64200;BME280;50516;52.272;5.136;2023-04-22T12:04:28;100626.75;;;15.90;76.26
64200;BME280;50516;52.272;5.136;2023-04-22T12:06:53;100611.84;;;15.63;78.80
64200;BME280;50516;52.272;5.136;2023-04-22T12:09:23;100617.56;;;15.80;80.25
64200;BME280;50516;52.272;5.136;2023-04-22T12:11:50;100621.03;;;15.72;80.60
64200;BME280;50516;52.272;5.136;2023-04-22T12:14:15;100614.34;;;15.50;82.24
64200;BME280;50516;52.272;5.136;2023-04-22T12:16:41;100613.97;;;15.66;83.09
64200;BME280;50516;52.272;5.136;2023-04-22T12:19:07;100613.06;;;15.57;83.86
64200;BME280;50516;52.272;5.136;2023-04-22T12:21:33;100621.47;;;15.65;83.47
64200;BME280;50516;52.272;5.136;2023-04-22T12:24:00;100624.66;;;15.59;84.45
64200;BME280;50516;52.272;5.136;2023-04-22T12:26:29;100622.09;;;15.62;84.87
64200;BME280;50516;52.272;5.136;2023-04-22T12:28:56;100626.81;;;15.62;84.42
64200;BME280;50516;52.272;5.136;2023-04-22T12:31:22;100629.09;;;15.46;85.89
64200;BME280;50516;52.272;5.136;2023-04-22T12:33:47;100614.97;;;15.47;85.41
64200;BME280;50516;52.272;5.136;2023-04-22T12:36:13;100614.56;;;15.40;85.06
64200;BME280;50516;52.272;5.136;2023-04-22T12:38:38;100612.44;;;15.60;85.18
64200;BME280;50516;52.272;5.136;2023-04-22T12:41:04;100617.94;;;15.37;85.30
64200;BME280;50516;52.272;5.136;2023-04-22T12:43:31;100644.91;;;15.18;87.16
64200;BME280;50516;52.272;5.136;2023-04-22T12:45:59;100657.84;;;15.08;88.21
64200;BME280;50516;52.272;5.136;2023-04-22T12:48:24;100659.66;;;14.71;89.23
64200;BME280;50516;52.272;5.136;2023-04-22T12:50:50;100661.09;;;14.50;90.02
64200;BME280;50516;52.272;5.136;2023-04-22T12:53:15;100642.78;;;14.54;89.52
64200;BME280;50516;52.272;5.136;2023-04-22T12:55:40;100627.50;;;14.62;89.10
64200;BME280;50516;52.272;5.136;2023-04-22T12:58:06;100628.41;;;14.71;88.88
64200;BME280;50516;52.272;5.136;2023-04-22T13:00:31;100636.94;;;14.88;88.57
64200;BME280;50516;52.272;5.136;2023-04-22T13:02:57;100636.28;;;14.77;88.19
64200;BME280;50516;52.272;5.136;2023-04-22T13:05:23;100626.44;;;14.57;88.34
64200;BME280;50516;52.272;5.136;2023-04-22T13:07:48;100608.47;;;14.60;88.29